Time;durP1;ratioP1;P1;durP2;ratioP2;P2;SDS_P1;SDS_P2;PMS_P1;PMS_P2;Temp;Humidity;BMP_temperature;BMP_pressure;BME280_temperature;BME280_humidity;BME280_pressure;Samples;Min_cycle;Max_cycle;Signal;HPM_P1;HPM_P2
2022/11/13 00:00:31;;;;;;;77.30;42.60;;;;;;;7.19;84.02;100170.67;422505;1296;111510;-39
2022/11/13 00:21:05;;;;;;;76.00;41.40;;;;;;;7.32;84.03;100160.71;422422;1286;97976;-41
2022/11/13 00:31:14;;;;;;;86.50;43.20;;;;;;;7.22;84.05;100158.05;422691;1295;108795;-43
2022/11/13 00:41:22;;;;;;;83.90;43.60;;;;;;;7.27;84.09;100156.55;422585;1296;97915;-40
2022/11/13 00:51:29;;;;;;;94.30;49.10;;;;;;;7.23;84.16;100160.13;422759;1284;109503;-41
2022/11/13 01:01:36;;;;;;;88.90;46.70;;;;;;;7.27;84.35;100154.94;422692;1296;107865;-41
2022/11/13 01:21:50;;;;;;;72.50;38.80;;;;;;;7.17;84.03;100131.81;422650;1286;108239;-41
2022/11/13 01:31:57;;;;;;;63.80;35.50;;;;;;;7.10;83.93;100125.56;422586;1296;97969;-42
2022/11/13 01:42:04;;;;;;;59.30;34.30;;;;;;;7.17;84.26;100124.23;422581;1294;109922;-41
2022/11/13 01:52:13;;;;;;;75.90;39.60;;;;;;;7.25;84.20;100110.82;422669;1292;107529;-40
2022/11/13 02:02:37;;;;;;;64.40;35.90;;;;;;;7.28;84.20;100098.36;423059;1269;97956;31
2022/11/13 02:12:49;;;;;;;77.40;38.40;;;;;;;7.25;84.23;100093.13;420007;1301;106652;-40
2022/11/13 02:22:56;;;;;;;77.20;38.30;;;;;;;7.20;84.28;100093.33;420140;1287;97931;-41
2022/11/13 02:33:16;;;;;;;57.90;33.30;;;;;;;7.05;84.20;100089.20;420061;1301;111675;-41
2022/11/13 02:43:23;;;;;;;68.90;35.50;;;;;;;7.00;84.38;100082.45;420325;1301;108370;-41
2022/11/13 02:53:31;;;;;;;57.40;31.00;;;;;;;7.10;84.49;100071.55;420198;1301;97882;-41
2022/11/13 03:03:38;;;;;;;55.50;29.80;;;;;;;7.04;84.37;100065.64;420002;1306;107953;-40
2022/11/13 03:14:04;;;;;;;58.50;32.10;;;;;;;7.01;84.45;100062.01;420465;1296;97876;-41
2022/11/13 03:24:12;;;;;;;56.80;29.30;;;;;;;7.20;84.86;100052.27;420475;1307;109691;-40
2022/11/13 03:34:19;;;;;;;61.30;33.40;;;;;;;7.27;84.44;100056.02;420482;1301;108409;-40
2022/11/13 03:44:26;;;;;;;72.30;35.30;;;;;;;7.35;84.58;100061.29;420573;1301;97998;-42
2022/11/13 03:54:33;;;;;;;72.70;37.90;;;;;;;7.25;84.35;100063.30;420458;1301;109935;-41
2022/11/13 04:04:40;;;;;;;73.90;34.50;;;;;;;7.08;84.47;100057.14;420429;1301;108258;-41
2022/11/13 04:14:47;;;;;;;63.90;34.90;;;;;;;7.06;84.49;100055.80;420502;1303;97915;-40
2022/11/13 04:24:54;;;;;;;63.20;32.70;;;;;;;7.13;84.53;100061.52;420424;1299;108738;-40
2022/11/13 04:35:02;;;;;;;65.70;33.50;;;;;;;7.14;84.45;100060.88;420497;1304;97937;-41
2022/11/13 04:45:09;;;;;;;61.90;33.50;;;;;;;7.19;84.67;100055.91;420390;1302;109965;-40
2022/11/13 04:55:16;;;;;;;73.10;40.30;;;;;;;7.32;84.69;100046.55;420374;1301;107788;-41
2022/11/13 05:05:24;;;;;;;62.40;34.90;;;;;;;7.22;84.52;100052.59;420428;1299;97307;-41
2022/11/13 05:15:31;;;;;;;76.50;39.10;;;;;;;7.06;84.50;100054.21;420479;1301;110514;-42
2022/11/13 05:25:38;;;;;;;73.10;37.00;;;;;;;6.99;84.37;100050.31;420389;1301;107637;-39
2022/11/13 05:35:45;;;;;;;65.90;36.10;;;;;;;6.99;84.44;100053.31;420439;1298;97905;-41
2022/11/13 05:45:52;;;;;;;57.10;31.40;;;;;;;7.03;84.39;100065.05;420388;1306;107271;-41
2022/11/13 05:56:00;;;;;;;59.70;30.00;;;;;;;7.12;84.48;100062.40;420350;1309;97893;-41
2022/11/13 06:06:07;;;;;;;64.80;33.00;;;;;;;7.16;84.37;100050.35;420695;1292;111266;-39
2022/11/13 06:16:17;;;;;;;67.30;35.30;;;;;;;7.06;84.32;100047.15;420596;1290;108050;-40
2022/11/13 06:26:27;;;;;;;71.20;34.30;;;;;;;6.98;84.40;100049.86;420366;1298;98023;-43
2022/11/13 06:36:36;;;;;;;69.40;34.40;;;;;;;7.02;84.55;100047.46;420395;1302;110299;-41
2022/11/13 06:46:43;;;;;;;64.10;34.80;;;;;;;7.09;84.49;100047.45;420463;1292;107863;-40
2022/11/13 06:56:50;;;;;;;58.70;32.30;;;;;;;7.14;84.47;100048.48;420458;1307;97933;-40
2022/11/13 07:06:57;;;;;;;65.90;32.00;;;;;;;7.17;84.48;100044.12;420500;1292;108577;-41
2022/11/13 07:17:05;;;;;;;61.00;32.10;;;;;;;7.06;84.25;100038.45;420403;1307;97881;-40
2022/11/13 07:27:16;;;;;;;75.40;33.20;;;;;;;7.07;84.48;100045.35;420492;1304;110332;-40
2022/11/13 07:37:23;;;;;;;75.60;35.90;;;;;;;7.19;84.57;100043.31;420338;1298;106889;-41
2022/11/13 07:47:30;;;;;;;76.40;34.90;;;;;;;7.15;84.52;100032.15;420597;1302;96624;-41
2022/11/13 07:57:38;;;;;;;81.60;37.20;;;;;;;6.84;84.40;100027.64;420684;1294;110598;-39
2022/11/13 08:07:46;;;;;;;71.40;35.50;;;;;;;6.78;84.35;100032.45;420463;1307;108368;-39
2022/11/13 08:17:57;;;;;;;77.70;35.90;;;;;;;6.79;84.56;100047.05;420483;1299;97905;-40
2022/11/13 08:28:04;;;;;;;56.40;28.10;;;;;;;6.86;84.55;100055.47;420378;1292;107177;-41
2022/11/13 08:38:18;;;;;;;71.40;32.70;;;;;;;6.96;84.80;100063.80;420442;1302;98592;-40
2022/11/13 08:48:26;;;;;;;52.20;29.20;;;;;;;7.23;84.70;100062.79;420426;1307;111580;-41
2022/11/13 08:58:33;;;;;;;62.70;34.00;;;;;;;7.28;84.52;100067.81;420471;1302;107842;-39
2022/11/13 09:08:41;;;;;;;64.00;33.70;;;;;;;7.31;84.46;100063.85;420490;1299;97501;-40
2022/11/13 09:18:49;;;;;;;70.30;34.10;;;;;;;7.36;84.58;100073.64;420548;1291;110604;-40
2022/11/13 09:28:56;;;;;;;62.50;32.40;;;;;;;7.44;84.47;100076.13;420510;1298;107504;-41
2022/11/13 09:39:03;;;;;;;63.90;33.80;;;;;;;7.57;84.42;100071.63;420418;1307;97889;-40
2022/11/13 09:49:17;;;;;;;65.60;34.60;;;;;;;7.73;84.51;100061.70;420360;1301;111138;-41
2022/11/13 09:59:23;;;;;;;64.90;31.60;;;;;;;7.87;84.34;100057.98;420435;1299;106761;-41
2022/11/13 10:09:30;;;;;;;66.40;33.40;;;;;;;7.91;84.19;100053.80;420295;1302;97934;-41
2022/11/13 10:19:39;;;;;;;66.80;35.10;;;;;;;8.04;84.48;100041.92;420256;1301;106430;-41
2022/11/13 10:29:46;;;;;;;55.40;30.00;;;;;;;8.29;84.31;100027.27;420609;1292;97768;-41
2022/11/13 10:39:55;;;;;;;66.60;33.50;;;;;;;8.29;83.86;100023.70;420531;1301;110743;-39
2022/11/13 10:50:09;;;;;;;68.50;33.00;;;;;;;8.50;84.05;100019.48;420581;1301;108610;-40
2022/11/13 11:00:29;;;;;;;63.90;32.80;;;;;;;8.78;83.74;100010.16;420392;1302;97909;-42
2022/11/13 11:12:14;;;;;;;66.40;34.00;;;;;;;8.90;83.64;100003.81;420320;1302;153234;-42
2022/11/13 11:21:06;;;;;;;73.90;36.20;;;;;;;9.19;83.62;99982.86;420590;1292;107884;-42
2022/11/13 11:31:11;;;;;;;81.20;39.50;;;;;;;9.38;83.43;99970.58;420608;1301;97354;-41
2022/11/13 11:41:24;;;;;;;86.20;37.70;;;;;;;9.55;83.00;99951.45;420580;1301;109228;-41
2022/11/13 11:51:32;;;;;;;74.10;37.60;;;;;;;9.64;82.66;99936.02;420509;1302;106743;-41
2022/11/13 12:01:45;;;;;;;74.50;35.80;;;;;;;9.63;82.61;99924.77;420355;1307;96664;-41
2022/11/13 12:11:52;;;;;;;78.50;38.80;;;;;;;9.62;82.39;99913.09;420550;1299;107428;-40
2022/11/13 12:21:57;;;;;;;75.80;36.80;;;;;;;9.68;82.28;99911.89;420504;1294;97497;-41
2022/11/13 12:32:03;;;;;;;74.00;34.90;;;;;;;9.83;82.13;99898.70;420620;1299;110148;-40
2022/11/13 12:42:12;;;;;;;73.20;35.50;;;;;;;9.89;81.90;99887.46;420384;1294;106702;-40
2022/11/13 12:52:23;;;;;;;65.40;31.10;;;;;;;9.96;81.75;99873.40;420513;1302;98108;-40
2022/11/13 13:02:42;;;;;;;70.00;34.70;;;;;;;10.05;81.65;99864.67;420601;1292;105837;-40
2022/11/13 13:12:49;;;;;;;64.60;31.90;;;;;;;10.02;81.57;99848.08;420606;1292;97905;-40
2022/11/13 13:22:57;;;;;;;63.00;33.20;;;;;;;10.06;81.53;99840.73;420664;1299;110755;-41
2022/11/13 13:33:05;;;;;;;53.30;27.40;;;;;;;10.07;81.25;99837.81;420568;1292;106951;-41
2022/11/13 13:43:16;;;;;;;53.80;28.10;;;;;;;10.14;81.11;99837.42;420496;1301;97886;-40
2022/11/13 13:53:25;;;;;;;51.90;28.60;;;;;;;10.22;81.05;99831.89;420401;1301;106756;-41
2022/11/13 14:03:32;;;;;;;55.20;30.90;;;;;;;10.22;80.96;99821.92;420508;1301;97985;-41
2022/11/13 14:13:40;;;;;;;78.10;39.20;;;;;;;10.11;80.88;99818.67;420471;1292;110435;-41
2022/11/13 14:23:50;;;;;;;59.00;30.80;;;;;;;9.92;80.69;99816.23;420595;1301;108403;-40
2022/11/13 14:44:04;;;;;;;59.80;32.40;;;;;;;9.50;80.61;99812.77;420502;1301;108313;-41
2022/11/13 14:54:27;;;;;;;54.60;31.00;;;;;;;9.28;80.62;99809.48;420422;1292;97904;-41
2022/11/13 15:04:47;;;;;;;64.30;32.90;;;;;;;8.96;80.59;99801.72;420502;1292;111009;-39
2022/11/13 15:14:55;;;;;;;61.40;34.30;;;;;;;8.53;80.59;99805.17;420534;1299;106503;-40
2022/11/13 15:25:02;;;;;;;67.00;40.40;;;;;;;8.08;80.73;99808.62;420529;1301;97912;-41
2022/11/13 15:35:09;;;;;;;69.10;36.60;;;;;;;7.73;81.06;99803.70;420590;1299;107987;-41
2022/11/13 15:45:16;;;;;;;72.00;40.00;;;;;;;7.47;81.10;99797.43;420637;1293;100399;-41
2022/11/13 15:55:24;;;;;;;110.30;52.70;;;;;;;7.24;81.23;99801.55;420729;1292;111707;-41
2022/11/13 16:05:30;;;;;;;93.00;48.00;;;;;;;7.03;81.51;99801.57;420545;1301;107518;-41
2022/11/13 16:15:37;;;;;;;116.90;56.50;;;;;;;6.86;81.67;99803.20;420410;1301;98037;-41
2022/11/13 16:25:43;;;;;;;169.70;72.40;;;;;;;6.68;81.88;99804.00;420442;1294;108205;-41
2022/11/13 16:35:49;;;;;;;110.10;52.10;;;;;;;6.52;82.06;99810.64;420537;1299;97918;-41
2022/11/13 16:45:59;;;;;;;115.60;57.20;;;;;;;6.44;82.32;99813.95;420455;1299;109930;-41
2022/11/13 16:56:05;;;;;;;;;;;;;;;6.32;82.54;99809.39;421411;1300;108770;-41
2022/11/13 17:06:19;;;;;;;101.60;50.20;;;;;;;6.16;82.76;99792.32;420463;1292;97883;-42
2022/11/13 17:16:28;;;;;;;94.70;49.00;;;;;;;6.04;82.88;99782.14;420544;1286;106959;-41
2022/11/13 17:26:34;;;;;;;;;;;;;;;5.98;83.01;99784.41;420434;1301;97924;-41
2022/11/13 17:36:41;;;;;;;97.50;49.40;;;;;;;5.91;83.20;99789.35;420393;1299;108349;-41
2022/11/13 17:46:48;;;;;;;88.20;46.60;;;;;;;5.86;83.31;99785.69;420395;1297;109637;-40
2022/11/13 17:56:55;;;;;;;92.80;44.60;;;;;;;5.77;83.39;99781.85;420657;1293;98817;-40
2022/11/13 18:07:02;;;;;;;96.00;46.70;;;;;;;5.66;83.58;99786.05;420475;1307;107286;-40
2022/11/13 18:17:10;;;;;;;91.60;49.20;;;;;;;5.47;83.60;99786.50;420413;1301;97986;-41
2022/11/13 18:27:18;;;;;;;113.70;54.40;;;;;;;5.32;83.59;99795.66;420496;1292;109623;-41
2022/11/13 18:37:24;;;;;;;101.90;50.90;;;;;;;5.20;83.86;99806.59;420502;1285;107771;-41
2022/11/13 18:47:32;;;;;;;101.60;48.90;;;;;;;5.13;84.27;99809.25;420543;1302;97905;-42
2022/11/13 18:57:39;;;;;;;86.50;41.60;;;;;;;5.06;84.58;99799.55;420393;1306;109473;-40
2022/11/13 19:07:47;;;;;;;79.40;38.80;;;;;;;5.04;84.76;99788.95;420539;1298;97885;-41
2022/11/13 19:17:53;;;;;;;74.90;37.30;;;;;;;4.98;84.93;99788.98;420464;1292;110435;-42
2022/11/13 19:28:00;;;;;;;86.60;42.90;;;;;;;4.94;85.40;99786.88;420479;1292;106672;-40
2022/11/13 19:38:07;;;;;;;71.60;36.20;;;;;;;4.97;85.58;99789.77;420454;1284;96679;-40
2022/11/13 19:48:15;;;;;;;80.80;39.30;;;;;;;4.96;85.88;99787.58;420540;1292;109846;-40
2022/11/13 19:58:33;;;;;;;64.50;34.50;;;;;;;4.90;86.06;99785.34;420374;1301;97876;-40
2022/11/13 20:08:40;;;;;;;76.40;36.50;;;;;;;4.97;86.25;99790.42;420416;1292;110458;-40
2022/11/13 20:18:47;;;;;;;71.50;36.00;;;;;;;4.93;86.25;99786.29;420506;1300;108428;-40
2022/11/13 20:28:54;;;;;;;70.20;35.80;;;;;;;4.88;86.68;99784.73;420438;1302;96747;-40
2022/11/13 20:39:01;;;;;;;56.30;27.80;;;;;;;4.94;86.59;99786.12;420393;1301;108039;-40
2022/11/13 20:49:13;;;;;;;57.00;28.40;;;;;;;4.94;86.85;99777.25;420636;1294;97487;-40
2022/11/13 20:59:20;;;;;;;61.30;30.10;;;;;;;4.94;86.76;99768.04;420430;1301;110066;-40
2022/11/13 21:09:27;;;;;;;61.10;30.40;;;;;;;4.95;87.03;99772.31;420449;1294;106524;-40
2022/11/13 21:19:34;;;;;;;65.80;30.50;;;;;;;5.02;87.22;99756.67;420359;1306;97880;-42
2022/11/13 21:29:41;;;;;;;63.50;31.90;;;;;;;4.91;87.04;99759.95;420355;1298;108545;-40
2022/11/13 21:39:48;;;;;;;68.40;29.50;;;;;;;4.79;87.21;99758.79;420621;1302;97924;-40
2022/11/13 21:49:55;;;;;;;66.40;31.80;;;;;;;4.66;87.30;99760.89;420354;1302;111813;-41
2022/11/13 22:00:03;;;;;;;63.90;32.10;;;;;;;4.62;87.56;99751.69;420364;1301;108987;-41
2022/11/13 22:10:11;;;;;;;63.80;30.90;;;;;;;4.56;87.84;99738.27;420420;1301;97898;-40
2022/11/13 22:20:17;;;;;;;67.20;34.30;;;;;;;4.50;88.14;99732.08;420428;1294;108320;-40
2022/11/13 22:30:24;;;;;;;58.30;29.30;;;;;;;4.43;88.15;99729.64;420579;1302;97883;-40
2022/11/13 22:40:34;;;;;;;60.50;30.20;;;;;;;4.38;88.29;99728.43;420451;1301;109882;-40
2022/11/13 22:50:41;;;;;;;56.90;27.20;;;;;;;4.26;88.33;99723.73;420477;1302;107148;-40
2022/11/13 23:00:48;;;;;;;53.40;26.30;;;;;;;4.20;88.36;99721.11;420554;1301;97814;-41
2022/11/13 23:10:54;;;;;;;55.30;28.10;;;;;;;4.08;88.55;99723.83;420233;1301;241113;-40
2022/11/13 23:21:01;;;;;;;68.40;32.10;;;;;;;4.14;88.71;99718.11;420523;1284;96689;-41
2022/11/13 23:31:06;;;;;;;56.00;29.80;;;;;;;4.10;88.68;99701.41;420413;1294;109625;-41
2022/11/13 23:41:13;;;;;;;47.40;24.70;;;;;;;4.05;88.89;99702.95;420370;1294;107192;-40
